Time;durP1;ratioP1;P1;durP2;ratioP2;P2;SDS_P1;SDS_P2;PMS_P1;PMS_P2;Temp;Humidity;BMP_temperature;BMP_pressure;BME280_temperature;BME280_humidity;BME280_pressure;Samples;Min_cycle;Max_cycle;Signal;HPM_P1;HPM_P2
2023/06/12 00:00:54;;;;;;;10.50;5.97;;;19.00;99.90;;;;;;4960144;28;89872;-33
2023/06/12 00:03:23;;;;;;;9.40;6.10;;;18.90;99.90;;;;;;4959898;28;89850;-36
2023/06/12 00:05:49;;;;;;;5.88;5.28;;;18.90;99.90;;;;;;4960021;28;89913;-33
2023/06/12 00:08:17;;;;;;;6.68;5.22;;;18.90;99.90;;;;;;4959260;28;88039;-35
2023/06/12 00:10:44;;;;;;;5.93;5.45;;;18.90;99.90;;;;;;4960141;28;88117;-35
2023/06/12 00:13:11;;;;;;;6.45;5.85;;;18.80;99.90;;;;;;4959437;28;90240;-33
2023/06/12 00:15:37;;;;;;;5.15;4.38;;;18.70;99.90;;;;;;4959644;28;89585;-39
2023/06/12 00:18:03;;;;;;;6.18;4.63;;;18.70;99.90;;;;;;4959633;28;89562;-34
2023/06/12 00:20:33;;;;;;;6.70;4.88;;;18.70;99.90;;;;;;4959355;28;88610;-35
2023/06/12 00:22:58;;;;;;;6.65;5.10;;;18.70;99.90;;;;;;4959360;28;89232;-34
2023/06/12 00:25:27;;;;;;;7.60;5.22;;;18.60;99.90;;;;;;4960034;28;89642;-35
2023/06/12 00:27:53;;;;;;;9.45;5.80;;;18.60;99.90;;;;;;4967013;28;90379;-36
2023/06/12 00:30:19;;;;;;;4.50;3.90;;;18.60;99.90;;;;;;4998376;28;89885;-35
2023/06/12 00:32:44;;;;;;;5.72;4.53;;;18.60;99.90;;;;;;4996303;28;89145;-38
2023/06/12 00:35:10;;;;;;;5.50;4.95;;;18.60;99.90;;;;;;4998792;28;89210;-34
2023/06/12 00:37:36;;;;;;;7.30;4.85;;;18.60;99.90;;;;;;4996492;28;88806;-35
2023/06/12 00:40:03;;;;;;;5.32;4.82;;;18.50;99.90;;;;;;4998447;28;88409;-36
2023/06/12 00:42:41;;;;;;;13.10;5.28;;;18.50;99.90;;;;;;4987094;28;90186;-32
2023/06/12 00:45:08;;;;;;;9.80;4.72;;;18.40;99.90;;;;;;4996911;28;90293;-33
2023/06/12 00:47:34;;;;;;;7.43;5.03;;;18.40;99.90;;;;;;4983676;28;91865;-38
2023/06/12 00:50:00;;;;;;;7.05;4.38;;;18.30;99.90;;;;;;4998191;28;87624;-36
2023/06/12 00:52:29;;;;;;;8.00;5.57;;;18.20;99.90;;;;;;4996470;28;89991;-33
2023/06/12 00:54:55;;;;;;;;;;;18.10;99.90;;;;;;4997403;28;89726;-33
2023/06/12 00:57:22;;;;;;;7.38;5.28;;;18.20;99.90;;;;;;4996748;28;89732;-33
2023/06/12 00:59:49;;;;;;;4.93;4.43;;;18.00;99.90;;;;;;4998215;28;88796;-36
2023/06/12 01:02:15;;;;;;;6.05;4.30;;;17.90;99.90;;;;;;4996493;28;90284;-33
2023/06/12 01:04:42;;;;;;;4.85;3.67;;;17.90;99.90;;;;;;4998798;28;89832;-38
2023/06/12 01:07:29;;;;;;;5.00;4.47;;;17.80;99.90;;;;;;4979011;28;88299;-33
2023/06/12 01:10:13;;;;;;;4.85;4.00;;;17.80;99.90;;;;;;4993771;28;88748;-36
2023/06/12 01:12:41;;;;;;;5.55;5.05;;;17.70;99.90;;;;;;4986555;28;90430;-38
2023/06/12 01:15:07;;;;;;;5.10;4.70;;;17.70;99.90;;;;;;4997373;28;89122;-35
2023/06/12 01:17:32;;;;;;;13.90;4.88;;;17.60;99.90;;;;;;4998462;28;89265;-37
2023/06/12 01:20:11;;;;;;;5.28;4.45;;;17.60;99.90;;;;;;4985916;28;88794;-33
2023/06/12 01:22:41;;;;;;;6.00;4.65;;;17.60;99.90;;;;;;4985809;28;89002;-38
2023/06/12 01:25:36;;;;;;;12.90;4.93;;;17.60;99.90;;;;;;4978590;28;90948;-35
2023/06/12 01:28:22;;;;;;;5.50;4.97;;;17.50;99.90;;;;;;4989161;28;90187;-34
2023/06/12 01:31:08;;;;;;;4.70;4.20;;;17.50;99.90;;;;;;4964440;28;89935;-35
2023/06/12 01:33:40;;;;;;;5.78;4.35;;;17.40;99.90;;;;;;4958967;28;89990;-34
2023/06/12 01:36:10;;;;;;;6.18;4.22;;;17.40;99.90;;;;;;4958581;28;89275;-37
2023/06/12 01:38:39;;;;;;;7.30;4.63;;;17.40;99.90;;;;;;4959192;28;90359;-35
2023/06/12 01:41:06;;;;;;;9.05;5.25;;;17.30;99.90;;;;;;4959155;28;90053;-35
2023/06/12 01:43:32;;;;;;;8.57;4.57;;;17.40;99.90;;;;;;4958534;28;88820;-34
2023/06/12 01:45:58;;;;;;;6.85;4.68;;;17.40;99.90;;;;;;4958820;28;89370;-37
2023/06/12 01:48:23;;;;;;;8.25;4.82;;;17.30;99.90;;;;;;4958281;28;90154;-32
2023/06/12 01:50:49;;;;;;;6.28;5.68;;;17.20;99.90;;;;;;4959082;28;89167;-35
2023/06/12 01:53:15;;;;;;;5.13;4.57;;;17.20;99.90;;;;;;4958941;28;91320;-34
2023/06/12 01:55:41;;;;;;;11.90;5.20;;;17.20;99.90;;;;;;4958370;28;89517;-33
2023/06/12 01:58:08;;;;;;;9.57;5.13;;;17.10;99.90;;;;;;4970264;28;90417;-37
2023/06/12 02:00:35;;;;;;;6.28;4.72;;;17.10;99.90;;;;;;4971882;28;90276;-34
2023/06/12 02:03:01;;;;;;;5.85;4.45;;;17.10;99.90;;;;;;4958052;28;89887;-34
2023/06/12 02:05:27;;;;;;;6.25;4.90;;;17.10;99.90;;;;;;4958034;28;89708;-36
2023/06/12 02:07:53;;;;;;;8.32;5.15;;;17.10;99.90;;;;;;4960132;28;89555;-34
2023/06/12 02:10:18;;;;;;;7.32;4.50;;;17.00;99.90;;;;;;4968089;28;88102;-34
2023/06/12 02:12:44;;;;;;;5.38;4.75;;;17.00;99.90;;;;;;4981726;28;90365;-33
2023/06/12 02:15:12;;;;;;;8.52;5.15;;;16.90;99.90;;;;;;4961222;28;89710;-34
2023/06/12 02:17:37;;;;;;;11.50;5.15;;;16.80;99.90;;;;;;4961650;28;89711;-37
2023/06/12 02:20:04;;;;;;;8.18;5.10;;;16.80;99.90;;;;;;4961870;28;89382;-35
2023/06/12 02:22:29;;;;;;;8.23;4.65;;;16.70;99.90;;;;;;4961955;28;90248;-32
2023/06/12 02:24:56;;;;;;;4.78;4.38;;;16.60;99.90;;;;;;4961291;28;90923;-35
2023/06/12 02:27:22;;;;;;;8.70;5.40;;;16.60;99.90;;;;;;4961037;28;90732;-34
2023/06/12 02:29:48;;;;;;;6.93;5.35;;;16.50;99.90;;;;;;4979797;28;88779;-36
2023/06/12 02:32:14;;;;;;;5.85;5.05;;;16.50;99.90;;;;;;4981173;28;90193;-36
2023/06/12 02:34:40;;;;;;;6.28;4.40;;;16.40;99.90;;;;;;4981940;28;89127;-35
2023/06/12 02:37:08;;;;;;;6.45;5.05;;;16.30;99.90;;;;;;4981658;28;89139;-34
2023/06/12 02:39:34;;;;;;;6.43;4.82;;;16.30;99.90;;;;;;4982156;28;89886;-34
2023/06/12 02:42:00;;;;;;;10.23;5.95;;;16.30;99.90;;;;;;4981073;28;90725;-33
2023/06/12 02:44:26;;;;;;;6.78;4.80;;;16.20;99.90;;;;;;4980354;28;90139;-35
2023/06/12 02:46:57;;;;;;;6.25;5.50;;;16.20;99.90;;;;;;4981017;28;90028;-34
2023/06/12 02:49:25;;;;;;;7.70;5.25;;;16.10;99.90;;;;;;4980927;28;88853;-35
2023/06/12 02:51:51;;;;;;;6.57;4.82;;;16.20;99.90;;;;;;4985981;28;90510;-36
2023/06/12 02:54:18;;;;;;;10.70;5.05;;;16.10;99.90;;;;;;4980313;28;89776;-34
2023/06/12 02:56:46;;;;;;;7.95;5.32;;;16.10;99.90;;;;;;4981167;28;89521;-33
2023/06/12 02:59:18;;;;;;;9.55;5.93;;;16.10;99.90;;;;;;4981058;28;88491;-32
2023/06/12 03:01:44;;;;;;;5.70;4.57;;;16.10;99.90;;;;;;4980573;28;90313;-39
2023/06/12 03:04:20;;;;;;;8.85;4.75;;;16.00;99.90;;;;;;4980431;28;90632;-35
2023/06/12 03:06:53;;;;;;;8.82;5.53;;;15.90;99.90;;;;;;4980863;28;89249;-33
2023/06/12 03:09:20;;;;;;;10.20;5.78;;;15.90;99.90;;;;;;4981648;28;90095;-36
2023/06/12 03:11:47;;;;;;;5.80;5.30;;;15.90;99.90;;;;;;4980457;28;90288;-32
2023/06/12 03:14:13;;;;;;;10.88;5.90;;;15.80;99.90;;;;;;4979533;28;90644;-34
2023/06/12 03:16:39;;;;;;;7.57;5.60;;;15.80;99.90;;;;;;4980664;28;90501;-35
2023/06/12 03:19:06;;;;;;;7.22;5.53;;;15.80;99.90;;;;;;4980003;28;90224;-32
2023/06/12 03:21:32;;;;;;;6.32;5.28;;;15.80;99.90;;;;;;4980268;28;89926;-37
2023/06/12 03:23:58;;;;;;;9.85;5.95;;;15.80;99.90;;;;;;4981069;28;89281;-32
2023/06/12 03:26:23;;;;;;;7.65;5.18;;;15.80;99.90;;;;;;4979740;28;89627;-33
2023/06/12 03:28:49;;;;;;;8.98;5.80;;;15.80;99.90;;;;;;4980605;28;89610;-35
2023/06/12 03:31:15;;;;;;;6.43;4.70;;;15.70;99.90;;;;;;4980052;28;90805;-35
2023/06/12 03:33:40;;;;;;;6.85;4.90;;;15.80;99.90;;;;;;4981124;28;90201;-38
2023/06/12 03:36:06;;;;;;;7.65;5.25;;;15.80;99.90;;;;;;4980365;28;89872;-37
2023/06/12 03:38:32;;;;;;;7.50;5.97;;;15.70;99.90;;;;;;4980081;28;90244;-36
2023/06/12 03:40:57;;;;;;;13.70;5.82;;;15.70;99.90;;;;;;4980761;28;88785;-37
2023/06/12 03:43:23;;;;;;;6.20;5.70;;;15.70;99.90;;;;;;4979661;28;90344;-36
2023/06/12 03:45:48;;;;;;;7.28;5.88;;;15.70;99.90;;;;;;4980586;28;89606;-35
2023/06/12 03:48:14;;;;;;;8.38;5.38;;;15.70;99.90;;;;;;4988165;28;88588;-35
2023/06/12 03:50:40;;;;;;;13.40;6.60;;;15.70;99.90;;;;;;4980304;28;90689;-34
2023/06/12 03:53:05;;;;;;;9.90;5.60;;;15.70;99.90;;;;;;4991612;28;91020;-33
2023/06/12 03:55:32;;;;;;;15.05;6.63;;;15.70;99.90;;;;;;4981420;28;89285;-33
2023/06/12 03:57:57;;;;;;;7.72;6.07;;;15.70;99.90;;;;;;4981247;28;88436;-34
2023/06/12 04:00:23;;;;;;;7.35;6.50;;;15.70;99.90;;;;;;4979154;28;90224;-35
2023/06/12 04:02:49;;;;;;;8.65;5.30;;;15.60;99.90;;;;;;4979532;28;90333;-37
2023/06/12 04:05:14;;;;;;;9.00;6.57;;;15.70;99.90;;;;;;4978954;28;90643;-34
2023/06/12 04:07:40;;;;;;;12.73;8.20;;;15.60;99.90;;;;;;4979207;28;89858;-37
2023/06/12 04:10:09;;;;;;;10.05;7.15;;;15.60;99.90;;;;;;4980059;28;90725;-32
2023/06/12 04:12:35;;;;;;;7.25;6.28;;;15.60;99.90;;;;;;4979679;28;89390;-32
2023/06/12 04:15:02;;;;;;;13.43;7.25;;;15.60;99.90;;;;;;4978466;28;89116;-32
2023/06/12 04:17:28;;;;;;;11.03;7.13;;;15.60;99.90;;;;;;4979638;28;89290;-36
2023/06/12 04:19:55;;;;;;;8.55;7.75;;;15.50;99.90;;;;;;4979585;28;91527;-33
2023/06/12 04:22:22;;;;;;;11.57;7.13;;;15.60;99.90;;;;;;4987650;28;90183;-33
2023/06/12 04:24:49;;;;;;;10.05;7.32;;;15.60;99.90;;;;;;4979239;28;89730;-37
2023/06/12 04:30:05;;;;;;;10.95;7.72;;;15.60;99.90;;;;;;4965655;28;89457;-32
2023/06/12 04:32:32;;;;;;;8.73;6.90;;;15.70;99.90;;;;;;4978376;28;91338;-36
2023/06/12 04:34:58;;;;;;;9.23;8.15;;;15.60;99.90;;;;;;4979413;28;89700;-34
2023/06/12 04:37:25;;;;;;;9.38;6.72;;;15.70;99.90;;;;;;4979425;28;89293;-37
2023/06/12 04:39:52;;;;;;;7.83;6.93;;;15.80;99.90;;;;;;4979478;28;91292;-33
2023/06/12 04:42:17;;;;;;;15.10;8.07;;;15.80;99.90;;;;;;4977462;28;90156;-33
2023/06/12 04:44:46;;;;;;;9.50;7.30;;;15.80;99.90;;;;;;4979832;28;87577;-36
2023/06/12 04:47:14;;;;;;;7.40;6.68;;;15.80;99.90;;;;;;4963457;28;89326;-34
2023/06/12 04:49:41;;;;;;;9.57;7.47;;;15.90;99.90;;;;;;4960559;28;90477;-32
2023/06/12 04:52:08;;;;;;;8.48;7.40;;;16.00;99.90;;;;;;4974893;28;90616;-33
2023/06/12 04:54:35;;;;;;;10.82;7.05;;;16.10;99.90;;;;;;4979105;28;90447;-34
2023/06/12 04:57:07;;;;;;;12.93;7.20;;;16.30;99.90;;;;;;4978588;28;88850;-34
2023/06/12 04:59:37;;;;;;;8.63;7.43;;;16.40;99.90;;;;;;4978398;28;89309;-38
2023/06/12 05:02:03;;;;;;;9.18;7.45;;;16.50;99.90;;;;;;4978155;28;90401;-33
2023/06/12 05:04:29;;;;;;;8.80;8.00;;;16.60;99.90;;;;;;4967317;28;89543;-33
2023/06/12 05:06:56;;;;;;;8.52;6.68;;;16.60;99.90;;;;;;4960702;28;88959;-33
2023/06/12 05:09:21;;;;;;;13.32;7.43;;;16.70;99.90;;;;;;4958594;28;90441;-37
2023/06/12 05:11:47;;;;;;;12.30;8.73;;;16.80;99.90;;;;;;4960934;28;89602;-36
2023/06/12 05:14:13;;;;;;;12.02;6.95;;;17.00;99.90;;;;;;4959407;28;89752;-35
2023/06/12 05:16:38;;;;;;;9.98;7.47;;;17.10;99.90;;;;;;4959728;28;90611;-31
2023/06/12 05:19:05;;;;;;;7.82;7.03;;;17.30;99.90;;;;;;4959052;28;90683;-34
2023/06/12 05:21:31;;;;;;;11.65;7.60;;;17.40;99.90;;;;;;4959200;28;89657;-38
2023/06/12 05:23:56;;;;;;;9.57;6.70;;;17.60;99.90;;;;;;4959743;28;89652;-36
2023/06/12 05:26:23;;;;;;;11.18;8.15;;;17.80;99.90;;;;;;4958181;28;89551;-38
2023/06/12 05:28:48;;;;;;;10.35;7.35;;;17.80;99.90;;;;;;4959293;28;90208;-35
2023/06/12 05:31:14;;;;;;;6.85;5.72;;;18.00;99.90;;;;;;4958974;28;89492;-32
2023/06/12 05:33:40;;;;;;;13.27;8.32;;;18.30;99.90;;;;;;4959878;28;89171;-33
2023/06/12 05:36:07;;;;;;;8.52;7.20;;;18.40;99.90;;;;;;4972019;28;90452;-33
2023/06/12 05:38:33;;;;;;;9.40;7.35;;;18.50;99.90;;;;;;4975648;28;89994;-34
2023/06/12 05:40:59;;;;;;;13.27;7.85;;;18.70;99.90;;;;;;4972590;28;89933;-36
2023/06/12 05:43:24;;;;;;;10.38;7.88;;;18.80;99.90;;;;;;4974288;28;90650;-34
2023/06/12 05:45:50;;;;;;;10.27;7.43;;;18.80;99.90;;;;;;4976692;28;89983;-34
2023/06/12 05:48:18;;;;;;;12.43;8.00;;;18.90;99.90;;;;;;4975702;28;90075;-32
2023/06/12 05:50:44;;;;;;;9.73;7.68;;;19.10;99.90;;;;;;4976867;28;90023;-35
2023/06/12 05:53:10;;;;;;;10.30;7.13;;;19.20;99.90;;;;;;4974523;28;89654;-35
2023/06/12 05:55:35;;;;;;;8.38;7.15;;;19.40;99.90;;;;;;4979609;28;90291;-33
2023/06/12 05:58:01;;;;;;;7.45;6.65;;;19.40;99.90;;;;;;4969469;28;90490;-32
2023/06/12 06:00:26;;;;;;;10.18;8.75;;;19.60;99.90;;;;;;4979606;28;89527;-33
2023/06/12 06:02:52;;;;;;;8.43;7.28;;;19.80;99.90;;;;;;4981489;28;89168;-34
2023/06/12 06:05:18;;;;;;;8.80;7.65;;;19.80;99.90;;;;;;4962852;28;90157;-34
2023/06/12 06:07:44;;;;;;;10.15;8.63;;;19.90;99.90;;;;;;4962203;28;90664;-37
2023/06/12 06:10:11;;;;;;;10.10;9.13;;;20.10;99.90;;;;;;4962105;28;89377;-33
2023/06/12 06:12:37;;;;;;;9.25;8.15;;;20.30;99.90;;;;;;4962714;28;89104;-34
2023/06/12 06:15:03;;;;;;;9.07;8.07;;;20.40;99.90;;;;;;4962214;28;88933;-34
2023/06/12 06:17:28;;;;;;;9.32;7.78;;;20.30;99.90;;;;;;4961251;28;89928;-34
2023/06/12 06:19:54;;;;;;;9.68;8.68;;;20.20;99.90;;;;;;4961820;28;89283;-32
2023/06/12 06:22:22;;;;;;;9.70;7.88;;;20.20;99.90;;;;;;4960973;28;89472;-33
2023/06/12 06:24:48;;;;;;;9.13;8.23;;;20.30;99.90;;;;;;4961977;28;90068;-34
2023/06/12 06:27:13;;;;;;;11.30;8.75;;;20.50;99.90;;;;;;4961352;28;90142;-35
2023/06/12 06:29:39;;;;;;;10.93;8.02;;;20.80;99.90;;;;;;4960892;28;90806;-33
2023/06/12 06:32:05;;;;;;;13.10;8.52;;;21.00;99.90;;;;;;4961630;28;90107;-35
2023/06/12 06:34:30;;;;;;;9.40;7.88;;;21.20;99.90;;;;;;4960605;28;89757;-33
2023/06/12 06:36:56;;;;;;;11.93;8.98;;;21.30;99.90;;;;;;4961057;28;91154;-38
2023/06/12 06:39:22;;;;;;;10.32;7.93;;;21.40;99.90;;;;;;4960851;28;89231;-35
2023/06/12 06:41:48;;;;;;;9.10;8.20;;;21.70;99.90;;;;;;4960292;28;88752;-36
2023/06/12 06:44:13;;;;;;;9.43;8.52;;;21.80;99.90;;;;;;4961366;28;89567;-33
2023/06/12 06:46:39;;;;;;;9.30;8.38;;;22.00;99.90;;;;;;4961071;28;90614;-34
2023/06/12 06:49:04;;;;;;;9.63;8.65;;;22.10;99.90;;;;;;4960823;28;90228;-35
2023/06/12 06:51:31;;;;;;;9.95;8.50;;;22.30;99.90;;;;;;4960833;28;89423;-35
2023/06/12 06:53:57;;;;;;;13.63;9.43;;;22.30;99.90;;;;;;4960131;28;90359;-34
2023/06/12 06:56:23;;;;;;;10.68;8.57;;;22.50;99.90;;;;;;4960587;28;90181;-36
2023/06/12 06:58:49;;;;;;;9.43;8.38;;;22.60;99.90;;;;;;4960813;28;90439;-34
2023/06/12 07:01:15;;;;;;;9.05;8.13;;;22.90;99.90;;;;;;4961531;28;89508;-34
2023/06/12 07:03:41;;;;;;;14.75;7.85;;;23.10;99.90;;;;;;4962407;28;89294;-33
2023/06/12 07:06:07;;;;;;;9.43;8.48;;;23.00;99.90;;;;;;4960727;28;90725;-35
2023/06/12 07:08:32;;;;;;;10.15;8.13;;;23.20;99.90;;;;;;4961138;28;89600;-36
2023/06/12 07:10:58;;;;;;;10.32;8.35;;;23.40;99.90;;;;;;4960177;28;89718;-36
2023/06/12 07:13:23;;;;;;;13.07;8.85;;;23.40;99.90;;;;;;4960958;28;87667;-35
2023/06/12 07:15:49;;;;;;;9.77;8.77;;;23.40;99.30;;;;;;4958935;28;92662;-34
2023/06/12 07:18:15;;;;;;;9.88;8.95;;;23.50;99.30;;;;;;4959725;28;90648;-33
2023/06/12 07:20:40;;;;;;;11.07;9.18;;;23.60;99.90;;;;;;4971176;28;91516;-31
2023/06/12 07:23:06;;;;;;;10.23;9.13;;;23.60;99.90;;;;;;4966106;28;88452;-36
2023/06/12 07:25:32;;;;;;;9.18;8.27;;;23.80;99.90;;;;;;4979860;28;90652;-35
2023/06/12 07:27:57;;;;;;;15.32;9.25;;;23.90;97.80;;;;;;4978764;28;89518;-32
2023/06/12 07:30:23;;;;;;;9.60;7.43;;;24.00;99.60;;;;;;4979770;28;90432;-36
2023/06/12 07:32:48;;;;;;;9.23;8.43;;;24.10;99.30;;;;;;4978771;28;88576;-32
2023/06/12 07:35:15;;;;;;;16.05;8.75;;;24.30;98.10;;;;;;4979320;28;90702;-33
2023/06/12 07:37:42;;;;;;;8.90;8.02;;;24.20;95.40;;;;;;4979044;28;89183;-33
2023/06/12 07:40:09;;;;;;;8.90;8.00;;;24.30;93.20;;;;;;4979542;28;90270;-34
2023/06/12 07:42:35;;;;;;;9.43;8.52;;;24.40;92.10;;;;;;4960963;28;89010;-33
2023/06/12 07:45:03;;;;;;;10.75;9.75;;;24.50;92.20;;;;;;4979372;28;89781;-33
2023/06/12 07:47:28;;;;;;;10.65;7.45;;;24.50;84.20;;;;;;4977523;28;91019;-33
2023/06/12 07:49:54;;;;;;;10.40;7.57;;;24.60;88.40;;;;;;4993668;28;89782;-34
2023/06/12 07:52:20;;;;;;;11.05;7.75;;;24.50;84.70;;;;;;4978848;28;88879;-37
2023/06/12 07:54:48;;;;;;;8.43;7.63;;;24.70;92.60;;;;;;4979150;28;89955;-33
2023/06/12 07:57:13;;;;;;;10.18;9.27;;;24.80;85.90;;;;;;4959898;28;89626;-35
2023/06/12 07:59:39;;;;;;;11.35;8.75;;;24.90;84.80;;;;;;4971635;28;89798;-37
2023/06/12 08:02:06;;;;;;;10.20;9.02;;;24.90;83.30;;;;;;4978410;28;89642;-37
2023/06/12 08:04:33;;;;;;;11.95;7.95;;;25.20;82.10;;;;;;4967302;28;89833;-35
2023/06/12 08:07:00;;;;;;;10.43;9.23;;;25.60;86.90;;;;;;4976981;28;89599;-36
2023/06/12 08:09:26;;;;;;;9.55;8.65;;;25.60;76.40;;;;;;4967296;28;90636;-32
2023/06/12 08:11:52;;;;;;;10.65;8.15;;;25.50;73.20;;;;;;4960156;28;89270;-37
2023/06/12 08:14:18;;;;;;;11.95;8.30;;;25.10;76.20;;;;;;4960397;28;89473;-33
2023/06/12 08:16:45;;;;;;;9.40;8.13;;;25.40;80.40;;;;;;4959580;28;90074;-35
2023/06/12 08:19:12;;;;;;;9.18;8.35;;;25.50;76.30;;;;;;4959979;28;89299;-34
2023/06/12 08:21:39;;;;;;;9.03;8.13;;;25.60;76.40;;;;;;4959860;28;89812;-34
2023/06/12 08:24:07;;;;;;;8.85;8.05;;;25.70;75.50;;;;;;4959728;28;91586;-34
2023/06/12 08:26:33;;;;;;;11.43;7.80;;;25.90;70.90;;;;;;4958827;28;89614;-36
2023/06/12 08:28:59;;;;;;;12.38;9.07;;;26.10;72.00;;;;;;4972303;28;90140;-34
2023/06/12 08:31:24;;;;;;;10.52;8.90;;;26.00;69.30;;;;;;4978688;28;89315;-35
2023/06/12 08:33:50;;;;;;;8.70;7.97;;;25.70;69.90;;;;;;4978915;28;90163;-34
2023/06/12 08:36:16;;;;;;;10.77;8.35;;;26.10;72.30;;;;;;4978503;28;89447;-34
2023/06/12 08:38:41;;;;;;;10.35;7.85;;;26.30;70.10;;;;;;4978813;28;89989;-33
2023/06/12 08:41:07;;;;;;;9.52;8.70;;;26.20;70.60;;;;;;4979238;28;89600;-35
2023/06/12 08:43:34;;;;;;;11.70;8.60;;;26.10;69.80;;;;;;4978672;28;89208;-34
2023/06/12 08:46:07;;;;;;;10.15;8.77;;;26.60;69.50;;;;;;4978483;28;89709;-35
2023/06/12 08:48:33;;;;;;;13.25;8.57;;;26.30;68.70;;;;;;4978568;28;89970;-37
2023/06/12 08:51:03;;;;;;;10.35;9.25;;;26.40;68.60;;;;;;4978252;28;88519;-38
2023/06/12 08:53:29;;;;;;;13.45;8.75;;;26.50;68.50;;;;;;4977702;28;90591;-35
2023/06/12 08:55:55;;;;;;;11.88;8.80;;;27.00;69.50;;;;;;4977793;28;90733;-35
2023/06/12 08:58:21;;;;;;;15.60;9.07;;;27.00;68.90;;;;;;4976978;28;90060;-35
2023/06/12 09:00:47;;;;;;;9.27;8.43;;;26.90;67.70;;;;;;4977992;28;89392;-35
2023/06/12 09:03:13;;;;;;;8.38;7.55;;;27.00;68.60;;;;;;4976920;28;91577;-35
2023/06/12 09:05:39;;;;;;;14.07;9.50;;;27.00;66.80;;;;;;4978163;28;89917;-37
2023/06/12 09:08:06;;;;;;;9.65;8.35;;;27.10;67.60;;;;;;4978123;28;89974;-35
2023/06/12 09:10:36;;;;;;;12.43;9.07;;;27.10;65.80;;;;;;4970590;28;88800;-36
2023/06/12 09:13:09;;;;;;;9.85;8.43;;;27.30;65.80;;;;;;4957307;28;89782;-35
2023/06/12 09:15:36;;;;;;;9.63;8.60;;;27.30;65.80;;;;;;4955252;28;89893;-36
2023/06/12 09:18:02;;;;;;;14.55;8.48;;;27.30;66.00;;;;;;4977857;28;89815;-34
2023/06/12 09:20:31;;;;;;;11.35;8.95;;;27.70;66.00;;;;;;4978386;28;90608;-36
2023/06/12 09:22:58;;;;;;;11.88;9.15;;;27.70;64.70;;;;;;4977753;28;90223;-35
2023/06/12 09:25:37;;;;;;;8.93;8.07;;;27.80;65.10;;;;;;4978523;28;89239;-34
2023/06/12 09:28:03;;;;;;;10.80;9.68;;;27.80;63.20;;;;;;4973805;28;90060;-33
2023/06/12 09:30:33;;;;;;;9.52;8.10;;;27.70;63.40;;;;;;4960938;28;88739;-35
2023/06/12 09:33:00;;;;;;;9.60;8.65;;;27.70;62.90;;;;;;4961922;28;90306;-37
2023/06/12 09:35:26;;;;;;;10.82;9.82;;;27.90;63.80;;;;;;4959570;28;90301;-34
2023/06/12 09:37:51;;;;;;;14.23;8.23;;;27.90;64.40;;;;;;4961038;28;89625;-36
2023/06/12 09:40:17;;;;;;;10.57;9.25;;;28.20;64.40;;;;;;4947142;28;88536;-34
2023/06/12 09:42:45;;;;;;;9.73;8.75;;;28.00;63.40;;;;;;4960960;28;90334;-35
2023/06/12 09:45:12;;;;;;;9.85;8.95;;;28.10;64.00;;;;;;4958899;28;90275;-35
2023/06/12 09:47:46;;;;;;;11.75;9.07;;;28.30;63.70;;;;;;4960360;28;92433;-35
2023/06/12 09:50:13;;;;;;;10.25;9.25;;;28.20;62.40;;;;;;4960428;28;88219;-35
2023/06/12 09:52:44;;;;;;;13.03;9.07;;;28.10;62.80;;;;;;4960275;28;89573;-37
2023/06/12 09:55:17;;;;;;;11.20;9.00;;;28.00;62.10;;;;;;4943264;28;91664;-37
2023/06/12 09:57:50;;;;;;;9.23;8.35;;;28.20;62.30;;;;;;4958868;28;89262;-36
2023/06/12 10:00:17;;;;;;;11.55;9.40;;;28.40;62.70;;;;;;4961039;28;90431;-35
2023/06/12 10:03:05;;;;;;;11.95;9.55;;;28.40;61.00;;;;;;4959284;28;90452;-34
2023/06/12 10:05:35;;;;;;;9.70;8.77;;;28.40;60.50;;;;;;4964201;28;90893;-33
2023/06/12 10:08:03;;;;;;;14.20;9.38;;;28.50;61.50;;;;;;4945829;28;89680;-35
2023/06/12 10:10:30;;;;;;;14.35;9.30;;;28.60;61.60;;;;;;4977008;28;89513;-35
2023/06/12 10:12:57;;;;;;;14.30;8.57;;;28.60;60.10;;;;;;4975647;28;90494;-38
2023/06/12 10:15:23;;;;;;;9.70;8.80;;;28.70;60.50;;;;;;4976764;28;89462;-33
2023/06/12 10:17:53;;;;;;;9.45;8.65;;;28.50;58.50;;;;;;4976387;28;89989;-33
2023/06/12 10:20:20;;;;;;;15.95;9.07;;;28.70;58.70;;;;;;4977766;28;88293;-35
2023/06/12 10:22:46;;;;;;;9.23;8.38;;;28.70;58.40;;;;;;4958360;28;90313;-36
2023/06/12 10:25:14;;;;;;;9.23;8.33;;;28.70;57.40;;;;;;4977030;28;89359;-35
2023/06/12 10:27:41;;;;;;;9.82;8.82;;;28.90;57.90;;;;;;4976294;28;89042;-34
2023/06/12 10:30:15;;;;;;;10.93;9.75;;;28.80;57.70;;;;;;4979903;28;88636;-35
2023/06/12 10:32:42;;;;;;;11.43;9.63;;;28.90;56.50;;;;;;4980271;28;90146;-33
2023/06/12 10:35:08;;;;;;;12.05;9.27;;;29.00;55.00;;;;;;4979344;28;90849;-36
2023/06/12 10:37:47;;;;;;;10.85;9.77;;;29.00;56.20;;;;;;4979422;28;89185;-34
2023/06/12 10:40:19;;;;;;;9.30;8.40;;;28.80;54.70;;;;;;4969064;28;89143;-36
2023/06/12 10:42:51;;;;;;;9.35;8.27;;;28.80;54.80;;;;;;4960847;28;90287;-38
2023/06/12 10:45:25;;;;;;;9.77;8.88;;;28.70;56.40;;;;;;4961182;28;88568;-35
2023/06/12 10:48:02;;;;;;;9.80;8.77;;;28.60;56.60;;;;;;4960900;28;89244;-38
2023/06/12 10:50:30;;;;;;;10.38;9.38;;;28.50;55.50;;;;;;4961721;28;90045;-34
2023/06/12 10:52:59;;;;;;;14.45;9.75;;;28.30;53.60;;;;;;4961724;28;89983;-37
2023/06/12 10:55:27;;;;;;;14.85;9.55;;;28.40;53.80;;;;;;4961404;28;90147;-36
2023/06/12 10:57:55;;;;;;;11.90;10.02;;;28.70;51.20;;;;;;4961747;28;89906;-37
2023/06/12 11:00:45;;;;;;;10.18;9.18;;;28.70;50.30;;;;;;4960909;28;91006;-36
2023/06/12 11:03:29;;;;;;;10.38;9.38;;;28.40;51.50;;;;;;4960949;28;90065;-33
2023/06/12 11:06:13;;;;;;;10.52;9.48;;;28.60;51.80;;;;;;4970454;28;89678;-38
2023/06/12 11:08:42;;;;;;;9.80;8.90;;;28.70;50.60;;;;;;4979851;28;89544;-38
2023/06/12 11:11:12;;;;;;;10.40;9.50;;;28.70;52.70;;;;;;4979764;28;89061;-34
2023/06/12 11:13:42;;;;;;;10.60;9.55;;;28.40;50.10;;;;;;4953530;28;90856;-37
2023/06/12 11:16:12;;;;;;;10.77;8.82;;;28.20;50.30;;;;;;4978347;28;91440;-37
2023/06/12 11:18:37;;;;;;;9.93;8.93;;;28.10;50.80;;;;;;4979684;28;89571;-35
2023/06/12 11:21:03;;;;;;;10.75;9.85;;;27.90;51.20;;;;;;4979987;28;90069;-33
2023/06/12 11:23:29;;;;;;;10.00;9.20;;;27.90;52.00;;;;;;4979063;28;90345;-33
2023/06/12 11:25:57;;;;;;;12.93;10.88;;;28.00;52.70;;;;;;4977469;28;90352;-34
2023/06/12 11:28:23;;;;;;;19.80;8.98;;;28.30;50.60;;;;;;4977688;28;90398;-34
2023/06/12 11:30:56;;;;;;;9.63;8.80;;;28.40;49.90;;;;;;4978422;28;88368;-36
2023/06/12 11:33:23;;;;;;;11.15;10.25;;;28.50;50.30;;;;;;4979365;28;89986;-37
2023/06/12 11:35:57;;;;;;;11.75;9.55;;;28.70;50.60;;;;;;4977751;28;89931;-35
2023/06/12 11:38:23;;;;;;;11.82;10.35;;;28.70;49.00;;;;;;4978153;28;89611;-33
2023/06/12 11:40:50;;;;;;;10.63;9.55;;;28.80;49.70;;;;;;4977901;28;89362;-35
2023/06/12 11:43:18;;;;;;;11.93;8.80;;;28.60;48.70;;;;;;4979397;28;90832;-35
2023/06/12 11:45:44;;;;;;;11.52;10.30;;;28.60;49.90;;;;;;4977848;28;89311;-37
2023/06/12 11:48:16;;;;;;;10.35;9.40;;;28.40;49.20;;;;;;4978469;28;90431;-37
2023/06/12 11:50:50;;;;;;;10.00;9.10;;;28.10;48.80;;;;;;4977089;28;90327;-37
2023/06/12 11:53:17;;;;;;;10.32;9.35;;;28.10;49.60;;;;;;4978313;28;90598;-37
2023/06/12 11:55:47;;;;;;;10.95;9.98;;;28.10;48.30;;;;;;4960321;28;91526;-36
2023/06/12 11:58:12;;;;;;;10.30;9.38;;;28.00;48.50;;;;;;4977839;28;89964;-35
2023/06/12 12:00:40;;;;;;;11.23;10.20;;;28.10;50.30;;;;;;4947898;28;89951;-35
2023/06/12 12:03:09;;;;;;;12.55;10.35;;;28.40;49.60;;;;;;4977239;28;90364;-34
2023/06/12 12:05:37;;;;;;;12.63;10.00;;;28.60;49.90;;;;;;4953787;28;89385;-34
2023/06/12 12:08:04;;;;;;;13.13;10.52;;;28.70;49.30;;;;;;4978282;28;89502;-34
2023/06/12 12:10:39;;;;;;;9.73;8.82;;;28.70;47.90;;;;;;4978558;28;90036;-35
2023/06/12 12:13:06;;;;;;;15.65;10.88;;;28.90;48.70;;;;;;4963580;28;90604;-38
2023/06/12 12:15:35;;;;;;;10.18;9.32;;;29.00;48.00;;;;;;4958681;28;90124;-35
2023/06/12 12:18:01;;;;;;;13.23;9.80;;;29.20;49.40;;;;;;4961936;28;90892;-36
2023/06/12 12:20:30;;;;;;;11.73;10.73;;;29.20;47.90;;;;;;4979021;28;88797;-36
2023/06/12 12:23:00;;;;;;;11.48;9.98;;;29.30;48.90;;;;;;4977778;28;90035;-38
2023/06/12 12:25:32;;;;;;;11.30;10.05;;;29.10;48.10;;;;;;4967621;28;89739;-34
2023/06/12 12:28:03;;;;;;;11.52;10.43;;;29.10;48.40;;;;;;4975606;28;89866;-33
2023/06/12 12:30:30;;;;;;;10.27;9.18;;;29.20;47.20;;;;;;4978249;28;88991;-35
2023/06/12 12:32:57;;;;;;;17.58;10.60;;;29.30;47.40;;;;;;4977290;28;90272;-33
2023/06/12 12:35:24;;;;;;;;;;;29.30;47.00;;;;;;4977812;28;89997;-34
2023/06/12 12:37:51;;;;;;;10.55;9.40;;;29.30;47.60;;;;;;4979711;28;90213;-33
2023/06/12 12:40:17;;;;;;;13.38;9.27;;;29.30;46.90;;;;;;4965458;28;89427;-37
2023/06/12 12:42:52;;;;;;;10.65;9.65;;;29.40;46.60;;;;;;4965849;28;89915;-36
2023/06/12 12:45:19;;;;;;;10.95;9.73;;;29.40;48.30;;;;;;4978298;28;89945;-33
2023/06/12 12:47:47;;;;;;;12.27;9.93;;;29.50;48.50;;;;;;4977818;28;89915;-35